Latest Weather Observations for Fitzroy Crossing

IDW60801

Issued at 7:32 am WST Friday 19 December 2014 (issued every 30 minutes, with the page automatically refreshed every 10 minutes)

About weather observations | Map of weather stations | Latest weather observations for WA | Other Formats
Station Details ID: 003093 Name: FITZROY CROSSING AERO Lat: -18.18 Lon: 125.56 Height: 114.5 m
Data from the previous 72 hours. | See also: Recent months at Fitzroy Crossing
Date/Time
WST
Temp
°C
App
Temp
°C
Dew
Point
Rel
Hum
%
Delta-T
°C
Wind Press
QNH
hPa
Press
MSL
hPa
Rain
since 9 am
mm
Dir
 
Spd
km/h
Gust
km/h
Spd
kts
Gust
kts
19/07:30am 26.6 30.5 24.8 90 1.3 SE 13 15 7 8 1011.6 1010.7 16.4
19/07:00am 26.6 31.3 24.3 87 1.6 SW 7 9 4 5 1010.9 1010.0 16.4
19/06:30am 26.4 31.3 24.4 89 1.4 W 6 9 3 5 1010.5 1009.6 16.4
19/06:00am 26.2 32.4 24.6 91 1.1 CALM 0 0 0 0 1010.4 1009.5 16.4
19/05:30am 25.7 30.5 24.5 93 0.8 S 7 11 4 6 1010.3 1009.4 16.4
19/05:00am 25.5 29.7 24.1 92 1.0 WSW 9 11 5 6 1010.0 1009.1 16.4
19/04:30am 25.5 29.3 24.1 92 1.0 SW 11 15 6 8 1010.1 1009.2 16.4
19/04:00am 25.5 29.4 24.3 93 0.8 SSW 11 15 6 8 1010.7 1009.8 16.4
19/03:30am 25.3 27.9 23.9 92 1.0 SSE 17 20 9 11 1011.3 1010.4 16.0
19/03:00am 25.5 27.7 23.9 91 1.1 SE 19 24 10 13 1011.8 1010.9 15.0
19/02:30am 26.5 28.7 24.0 86 1.7 SE 19 24 10 13 1012.0 1011.1 12.8
19/02:00am 26.4 28.4 23.9 86 1.7 SSE 20 32 11 17 1012.1 1011.2 12.0
19/01:30am 26.5 31.0 24.0 86 1.7 WSW 7 9 4 5 1010.5 1009.6 12.0
19/01:00am 26.6 30.9 23.7 84 2.0 WSW 7 9 4 5 1010.4 1009.5 12.0
19/12:30am 26.5 31.7 23.6 84 2.0 ESE 2 7 1 4 1010.6 1009.7 12.0
19/12:00am 26.7 31.2 23.6 83 2.1 E 6 9 3 5 1011.0 1010.1 12.0
 
Date/Time
WST
Temp
°C
App
Temp
°C
Dew
Point
Rel
Hum
%
Delta-T
°C
Wind Press
QNH
hPa
Press
MSL
hPa
Rain
since 9 am
mm
Dir
 
Spd
km/h
Gust
km/h
Spd
kts
Gust
kts
18/11:30pm 26.7 31.1 23.4 82 2.3 ESE 6 7 3 4 1011.2 1010.3 12.0
18/11:00pm 26.5 28.7 23.2 82 2.3 N 17 20 9 11 1010.3 1009.4 12.0
18/10:30pm 26.3 28.1 23.2 83 2.1 N 19 22 10 12 1010.4 1009.5 12.0
18/10:00pm 26.2 28.5 23.5 85 1.9 N 17 22 9 12 1010.3 1009.4 12.0
18/09:30pm 26.1 28.1 23.6 86 1.7 N 19 22 10 12 1010.0 1009.1 12.0
18/09:00pm 25.9 28.0 24.1 90 1.2 NNW 20 24 11 13 1009.4 1008.5 12.0
18/08:30pm 25.7 27.1 23.6 88 1.4 NW 22 28 12 15 1009.8 1008.9 12.0
18/08:00pm 25.4 27.3 23.8 91 1.1 NNW 20 26 11 14 1010.3 1009.4 12.0
18/07:30pm 25.7 27.8 24.1 91 1.1 NNW 20 24 11 13 1010.3 1009.4 11.2
18/07:00pm 26.0 29.2 24.4 91 1.1 NNW 15 22 8 12 1010.3 1009.4 10.6
18/06:30pm 24.8 24.0 23.4 92 1.0 N 33 46 18 25 1009.9 1009.0 10.6
18/06:00pm 25.4 24.8 22.7 85 1.8 NE 30 44 16 24 1010.0 1009.1 0.2
18/05:30pm 27.0 21.8 22.0 74 3.4 NNE 52 74 28 40 1008.1 1007.1 0.0
18/05:20pm 30.5 25.7 21.3 58 6.2 NE 48 82 26 44 1008.3 1007.3 0.0
18/05:18pm 31.5 27.6 21.4 55 6.8 ENE 44 82 24 44 1008.2 1007.2 0.0
18/05:16pm 31.6 27.9 20.8 52 7.2 ENE 41 82 22 44 1007.7 1006.7 0.0
18/05:13pm 33.2 31.8 20.4 47 8.6 E 28 74 15 40 1007.4 1006.4 0.0
18/05:12pm 34.6 33.3 19.8 41 9.9 E 26 52 14 28 1007.3 1006.3 0.0
18/05:00pm 35.6 33.8 20.3 40 10.3 SE 30 43 16 23 1006.4 1005.4 0.0
18/04:30pm 38.4 38.4 19.7 33 12.6 SSE 19 33 10 18 1005.3 1004.3 0.0
18/04:00pm 39.6 40.3 18.8 30 13.9 SSW 13 20 7 11 1005.0 1004.0 0.0
18/03:30pm 39.6 39.5 18.8 30 13.9 SSW 17 24 9 13 1005.1 1004.1 0.0
18/03:00pm 39.7 39.9 19.4 30 13.7 S 17 32 9 17 1004.5 1003.6 0.0
18/02:30pm 39.3 40.4 20.5 33 12.8 WSW 15 22 8 12 1004.9 1003.9 0.0
18/02:00pm 39.0 40.5 18.8 30 13.5 SSE 9 13 5 7 1005.5 1004.5 0.0
18/01:30pm 38.8 40.0 19.1 31 13.2 ESE 11 19 6 10 1006.5 1005.5 0.0
18/01:00pm 37.9 39.1 19.8 35 12.2 S 13 20 7 11 1006.8 1005.8 0.0
18/12:30pm 37.9 39.9 21.5 38 11.3 WSW 13 22 7 12 1007.3 1006.3 0.0
18/12:00pm 38.0 40.2 21.2 37 11.5 SSW 11 20 6 11 1008.0 1007.0 0.0
18/11:30am 36.8 39.0 21.8 42 10.3 SW 13 26 7 14 1008.6 1007.7 0.0
18/11:00am 36.7 39.4 21.3 40 10.5 WSW 9 15 5 8 1008.9 1008.0 0.0
18/10:30am 35.9 38.8 21.7 43 9.7 NW 9 13 5 7 1009.4 1008.5 0.0
18/10:00am 35.0 37.8 22.3 47 8.8 W 11 15 6 8 1009.6 1008.7 0.0
18/09:30am 34.1 36.4 22.8 51 7.8 WSW 15 20 8 11 1009.8 1008.9 0.0
18/09:00am 33.4 36.3 23.1 54 7.2 SW 13 20 7 11 1009.9 1009.0 0.0
18/08:30am 32.8 35.4 22.6 55 7.0 SW 13 17 7 9 1010.0 1009.1 0.0
18/08:00am 32.3 34.4 22.4 56 6.8 WSW 15 24 8 13 1010.1 1009.2 0.0
18/07:30am 31.6 34.3 22.9 60 6.0 WSW 13 19 7 10 1009.8 1008.9 0.0
18/07:00am 30.7 33.4 22.8 62 5.4 WSW 13 17 7 9 1009.7 1008.8 0.0
18/06:30am 30.0 32.9 23.2 67 4.7 WNW 13 19 7 10 1009.3 1008.4 0.0
18/06:00am 29.2 32.3 23.6 72 3.9 WNW 13 15 7 8 1008.9 1008.0 0.0
18/05:30am 28.0 31.5 23.6 77 3.0 NW 11 13 6 7 1008.5 1007.6 0.0
18/05:00am 28.2 32.1 23.6 76 3.2 WNW 9 11 5 6 1008.0 1007.0 0.0
18/04:30am 28.3 31.5 23.7 76 3.2 W 13 17 7 9 1007.4 1006.4 0.0
18/04:00am 28.5 31.4 23.9 76 3.2 WNW 15 19 8 10 1007.0 1006.0 0.0
18/03:30am 28.5 31.6 24.1 77 3.1 WNW 15 17 8 9 1006.8 1005.8 0.0
18/03:00am 28.8 31.2 23.7 74 3.5 NW 17 20 9 11 1006.9 1005.9 0.0
18/02:30am 28.8 31.5 23.5 73 3.7 NW 15 19 8 10 1006.6 1005.6 0.0
18/02:00am 29.1 31.7 23.3 71 4.0 NW 15 20 8 11 1006.6 1005.6 0.0
18/01:30am 29.4 31.6 23.3 69 4.2 WNW 17 20 9 11 1006.3 1005.3 0.0
18/01:00am 29.0 32.4 23.4 72 3.9 NW 11 13 6 7 1006.1 1005.1 0.0
18/12:30am 29.3 33.0 23.3 70 4.1 NW 9 11 5 6 1005.9 1004.9 0.0
18/12:00am 30.4 33.5 22.8 64 5.2 W 11 11 6 6 1006.1 1005.1 0.0
 
Date/Time
WST
Temp
°C
App
Temp
°C
Dew
Point
Rel
Hum
%
Delta-T
°C
Wind Press
QNH
hPa
Press
MSL
hPa
Rain
since 9 am
mm
Dir
 
Spd
km/h
Gust
km/h
Spd
kts
Gust
kts
17/11:30pm 30.3 34.0 23.2 65 4.9 WSW 9 11 5 6 1006.2 1005.2 0.0
17/11:00pm 30.1 34.3 23.5 67 4.6 NNW 7 11 4 6 1006.7 1005.7 0.0
17/10:30pm 31.1 34.9 23.5 64 5.3 W 9 9 5 5 1006.8 1005.8 0.0
17/10:00pm 31.3 34.7 23.4 63 5.5 W 11 13 6 7 1006.7 1005.7 0.0
17/09:30pm 31.5 34.9 23.3 61 5.7 W 11 13 6 7 1006.5 1005.5 0.0
17/09:00pm 32.0 35.3 23.8 62 5.7 W 13 15 7 8 1006.4 1005.4 0.0
17/08:30pm 32.6 37.4 24.4 62 5.8 WSW 7 9 4 5 1006.4 1005.4 0.0
17/08:00pm 32.9 37.3 23.8 58 6.4 SW 7 7 4 4 1006.1 1005.1 0.0
17/07:30pm 33.4 37.2 23.4 55 7.0 SW 9 11 5 6 1005.8 1004.8 0.0
17/07:00pm 33.9 37.6 23.3 54 7.4 SW 9 11 5 6 1005.5 1004.5 0.0
17/06:30pm 34.4 37.5 22.8 51 8.0 SW 11 17 6 9 1005.1 1004.1 0.0
17/06:00pm 36.3 40.1 20.1 38 10.9 CALM 0 6 0 3 1004.8 1003.8 0.0
17/05:30pm 36.6 39.2 20.0 38 11.2 NNW 6 11 3 6 1004.2 1003.3 0.0
17/05:00pm 37.0 39.7 20.3 37 11.3 N 6 15 3 8 1004.0 1003.1 0.0
17/04:30pm 36.6 40.7 20.8 39 10.7 CALM 0 6 0 3 1003.8 1002.9 0.0
17/04:00pm 36.9 40.0 21.5 41 10.6 SSW 7 13 4 7 1003.8 1002.9 0.0
17/03:30pm 36.3 39.2 21.7 42 10.0 ENE 9 11 5 6 1003.6 1002.7 0.0
17/03:00pm 36.5 39.8 21.5 41 10.3 SE 6 13 3 7 1003.8 1002.9 0.0
17/02:30pm 36.0 39.7 22.5 45 9.4 SE 7 15 4 8 1003.9 1003.0 0.0
17/02:00pm 34.9 38.6 22.2 47 8.8 NNW 6 9 3 5 1004.4 1003.5 0.0
17/01:30pm 35.0 39.3 23.3 50 8.2 ESE 6 11 3 6 1005.2 1004.2 0.0
17/01:00pm 34.5 37.4 23.2 51 7.9 E 13 20 7 11 1006.0 1005.0 0.0
17/12:30pm 33.3 36.9 23.0 54 7.1 E 9 17 5 9 1006.7 1005.7 0.0
17/12:00pm 32.8 35.0 22.6 55 7.0 E 15 24 8 13 1007.3 1006.3 0.0
17/11:30am 33.1 35.2 23.1 55 6.9 ENE 17 24 9 13 1007.6 1006.6 0.0
17/11:00am 32.1 33.8 23.1 59 6.2 E 19 26 10 14 1008.1 1007.1 0.0
17/10:30am 31.6 32.6 22.9 60 6.0 E 22 33 12 18 1008.7 1007.8 0.0
17/10:00am 31.6 32.7 23.7 63 5.5 ESE 24 33 13 18 1009.1 1008.2 0.0
17/09:30am 31.1 33.0 22.7 61 5.8 ESE 17 26 9 14 1009.4 1008.5 0.0
17/09:00am 30.3 31.8 22.7 64 5.2 ESE 19 26 10 14 1009.7 1008.8 42.2
17/08:30am 29.9 31.5 22.1 63 5.3 SSE 17 26 9 14 1009.8 1008.9 42.2
17/08:00am 29.7 30.2 21.1 60 5.8 SSE 20 30 11 16 1009.6 1008.7 42.2
17/07:30am 29.6 31.5 22.8 67 4.7 SSE 17 26 9 14 1009.4 1008.5 42.2
17/07:00am 28.1 29.5 22.6 72 3.7 SE 19 26 10 14 1009.4 1008.5 42.2
17/06:30am 27.6 30.3 23.4 78 2.9 SE 15 20 8 11 1009.0 1008.1 42.2
17/06:00am 26.8 30.0 23.7 83 2.1 SE 13 15 7 8 1008.8 1007.9 42.2
17/05:30am 25.7 29.7 23.7 89 1.4 SE 9 11 5 6 1008.1 1007.1 42.2
17/05:00am 25.4 31.0 23.5 89 1.3 CALM 0 0 0 0 1007.4 1006.4 42.2
17/04:30am 25.5 31.1 23.6 89 1.3 CALM 0 0 0 0 1006.6 1005.6 42.2
17/04:00am 25.5 31.2 23.7 90 1.2 CALM 0 0 0 0 1006.3 1005.3 42.2
17/03:30am 25.5 30.2 23.4 88 1.4 NNE 4 9 2 5 1006.1 1005.1 42.2
17/03:00am 25.7 31.3 23.6 88 1.4 CALM 0 0 0 0 1005.4 1004.4 42.2
17/02:30am 25.6 29.7 23.3 87 1.6 WNW 7 11 4 6 1005.2 1004.2 42.2
17/02:00am 25.6 30.0 23.5 88 1.4 NNW 6 9 3 5 1005.3 1004.3 42.2
17/01:30am 25.6 28.3 23.5 88 1.4 NNE 15 20 8 11 1005.0 1004.0 42.2
17/01:00am 25.8 27.4 23.3 86 1.7 WSW 20 24 11 13 1004.5 1003.6 42.2
17/12:30am 25.9 28.4 23.2 85 1.8 W 15 19 8 10 1005.9 1004.9 42.2
17/12:00am 26.1 29.7 23.0 83 2.1 W 9 11 5 6 1006.7 1005.7 42.2
 
Date/Time
WST
Temp
°C
App
Temp
°C
Dew
Point
Rel
Hum
%
Delta-T
°C
Wind Press
QNH
hPa
Press
MSL
hPa
Rain
since 9 am
mm
Dir
 
Spd
km/h
Gust
km/h
Spd
kts
Gust
kts
16/11:30pm 26.2 28.6 22.9 82 2.2 SW 15 20 8 11 1007.2 1006.2 42.2
16/11:00pm 26.0 27.6 22.9 83 2.1 WSW 19 24 10 13 1007.6 1006.6 42.2
16/10:30pm 25.7 28.8 23.6 88 1.4 W 13 15 7 8 1007.8 1006.8 42.2
16/10:00pm 25.5 29.0 23.6 89 1.3 WSW 11 15 6 8 1008.1 1007.1 42.2
16/09:30pm 25.4 28.9 23.6 90 1.2 NW 11 15 6 8 1008.4 1007.5 42.2
16/09:00pm 25.4 28.5 23.5 89 1.3 W 13 17 7 9 1009.2 1008.3 42.2
16/08:30pm 25.1 28.2 22.8 87 1.6 ESE 11 15 6 8 1009.4 1008.5 42.0
16/08:00pm 24.8 28.9 23.2 91 1.1 E 7 22 4 12 1009.7 1008.8 42.0
16/07:30pm 24.7 26.6 22.8 89 1.3 NNE 17 26 9 14 1008.8 1007.9 41.0
16/07:00pm 24.6 26.1 23.0 91 1.1 N 20 28 11 15 1008.2 1007.2 40.8
16/06:30pm 24.4 26.5 22.5 89 1.3 SE 15 24 8 13 1009.5 1008.6 33.2
16/06:25pm 25.1 26.8 23.0 88 1.4 ESE 19 28 10 15 1009.3 1008.4 29.8
16/06:09pm 23.3 20.8 22.3 94 0.7 ESE 39 57 21 31 1008.9 1008.0 29.2
16/06:00pm 22.8 19.5 21.6 93 0.8 E 41 57 22 31 1008.9 1008.0 21.4
16/05:50pm 22.7 19.5 21.0 90 1.1 E 39 61 21 33 1008.8 1007.9 11.6
16/05:40pm 23.7 19.5 20.6 83 2.0 E 43 57 23 31 1008.7 1007.8 3.0
16/05:30pm 29.1 29.4 21.6 64 5.1 ENE 22 54 12 29 1008.1 1007.1 0.0
16/05:29pm 29.7 30.9 22.2 64 5.1 NE 19 43 10 23 1008.2 1007.2 0.0
16/05:00pm 30.3 32.9 21.9 60 5.7 NNW 11 15 6 8 1006.2 1005.2 0.0
16/04:30pm 30.4 30.7 21.5 59 6.0 WNW 22 30 12 16 1004.6 1003.7 0.0
16/04:00pm 30.6 28.7 21.4 58 6.2 W 33 43 18 23 1004.5 1003.6 0.0
16/03:35pm 31.2 30.5 22.5 60 6.0 NW 30 48 16 26 1004.6 1003.7 0.0
16/03:30pm 31.7 32.6 22.7 59 6.2 NW 22 33 12 18 1004.2 1003.3 0.0
16/03:00pm 33.2 32.6 22.0 51 7.7 NNW 28 41 15 22 1004.2 1003.3 0.0
16/02:30pm 34.1 34.4 20.5 45 9.1 WNW 19 22 10 12 1003.5 1002.6 0.0
16/02:00pm 33.0 33.1 21.2 50 8.0 W 22 28 12 15 1003.8 1002.9 0.0
16/01:41pm 32.9 32.3 22.0 52 7.4 W 28 39 15 21 1004.1 1003.2 0.0
16/01:30pm 35.0 36.5 21.3 45 9.3 WNW 15 20 8 11 1004.2 1003.3 0.0
16/01:00pm 37.5 40.3 20.8 38 11.4 WNW 7 15 4 8 1004.8 1003.8 0.0
16/12:30pm 35.2 38.5 22.5 47 8.8 NNE 9 15 5 8 1006.1 1005.1 0.0
16/12:00pm 37.6 40.4 20.8 37 11.5 W 7 11 4 6 1006.8 1005.8 0.0
16/11:30am 37.8 40.7 21.0 37 11.5 NW 7 17 4 9 1007.0 1006.0 0.0
16/11:00am 38.4 41.2 21.5 37 11.6 NW 9 20 5 11 1007.3 1006.3 0.0
16/10:30am 37.1 39.1 21.6 40 10.6 WSW 13 20 7 11 1007.6 1006.6 0.0
16/10:00am 35.7 38.3 21.9 44 9.5 WSW 11 19 6 10 1008.1 1007.1 0.0
16/09:30am 34.9 36.7 21.9 46 8.9 WSW 15 22 8 12 1008.6 1007.7 0.0
16/09:00am 34.2 36.4 21.9 48 8.4 WNW 13 20 7 11 1008.7 1007.8 0.0
16/08:30am 33.9 36.2 22.0 49 8.2 W 13 17 7 9 1008.8 1007.9 0.0
16/08:00am 32.5 34.6 21.7 53 7.4 W 13 22 7 12 1009.0 1008.1 0.0

Other Formats:

Comma delimited format used in spreadsheet applications
http://www.bom.gov.au/fwo/IDW60801/IDW60801.94206.axf

JavaScript Object Notation format (JSON) in row-major order
http://www.bom.gov.au/fwo/IDW60801/IDW60801.94206.json